Terminal Aerodrome Forecast
Issued by NWS

Home | Current Version | Previous Version | Text Only | Print | Product List | Glossary On
Versions: 1 2 3 4 5 6 7 8 9 10 11 12 13 14 15 16 17 18
000
FTUS45 KGJT 292327
TAFTEX
TAF
KTEX 292327Z 3000/3024 VRB05G15KT P6SM VCTS SCT090CB BKN120
     FM300200 09006KT P6SM VCSH SCT090 BKN120
     FM300400 VRB03KT P6SM SCT080 BKN120
     FM302000 26005KT P6SM VCTS SCT090CB BKN120=

USA.gov is the U.S. government's official web portal to all federal, state and local government web resources and services.